Main page
METAR-TAF:

METAR-TAF

Airports :

Sanford Seacoast Regional Airport

Sanford, Maine, United States

latitude: 43-24N, longitude: 070-43W, elevation: 243 ft

Current weather observation

The report was made 24 minutes ago, at 18:56 UTC
Calm wind
Temperature 39°F
Humidity 93%
Pressure 29.97 in. Hg
Visibility: 0.25 miles
Broken clouds at a height of 300 ft
light rain, fog

METAR: KSFM 091856Z AUTO 00000KT 1/4SM -RA FG BKN003 04/03 A2997 RMK AO2 SLP154 T00390033 PNO $

Time: 14:20 (19:20 UTC)


TAF: missing

Weather observations and forecasts of more than 4000 airports (METAR and TAF reports).

The available stations are represented by yellow and red dots on the map.

Hover mouse over dot to see the name of the station.

Then click to see weather observations and forecasts.

To change the map : click on the green buttons with a black cross to zoom in, on the green button with a dash to zoom out, or on the green arrows for adjacent maps.


METAR-TAF: